sensor_id;sensor_type;location;lat;lon;timestamp;P1;durP1;ratioP1;P2;durP2;ratioP2
8474;SDS011;4274;52.012;8.448;2022-12-10T00:00:22;106.03;;;34.20;;
8474;SDS011;4274;52.012;8.448;2022-12-10T00:02:47;101.37;;;31.43;;
8474;SDS011;4274;52.012;8.448;2022-12-10T00:05:13;102.70;;;31.73;;
8474;SDS011;4274;52.012;8.448;2022-12-10T00:07:39;106.23;;;33.70;;
8474;SDS011;4274;52.012;8.448;2022-12-10T00:10:04;106.70;;;33.40;;
8474;SDS011;4274;52.012;8.448;2022-12-10T00:12:30;108.53;;;32.03;;
8474;SDS011;4274;52.012;8.448;2022-12-10T00:14:56;101.73;;;32.57;;
8474;SDS011;4274;52.012;8.448;2022-12-10T00:17:21;105.00;;;32.47;;
8474;SDS011;4274;52.012;8.448;2022-12-10T00:19:47;107.00;;;33.17;;
8474;SDS011;4274;52.012;8.448;2022-12-10T00:22:12;110.73;;;33.47;;
8474;SDS011;4274;52.012;8.448;2022-12-10T00:24:38;113.97;;;33.97;;
8474;SDS011;4274;52.012;8.448;2022-12-10T00:27:03;109.80;;;35.17;;
8474;SDS011;4274;52.012;8.448;2022-12-10T00:29:29;93.10;;;32.97;;
8474;SDS011;4274;52.012;8.448;2022-12-10T00:31:55;95.27;;;32.07;;
8474;SDS011;4274;52.012;8.448;2022-12-10T00:34:20;101.00;;;30.80;;
8474;SDS011;4274;52.012;8.448;2022-12-10T00:36:46;94.47;;;30.67;;
8474;SDS011;4274;52.012;8.448;2022-12-10T00:39:18;100.17;;;30.90;;
8474;SDS011;4274;52.012;8.448;2022-12-10T00:41:44;109.30;;;34.27;;
8474;SDS011;4274;52.012;8.448;2022-12-10T00:44:10;104.17;;;32.03;;
8474;SDS011;4274;52.012;8.448;2022-12-10T00:46:36;99.90;;;31.70;;
8474;SDS011;4274;52.012;8.448;2022-12-10T00:49:02;104.90;;;33.07;;
8474;SDS011;4274;52.012;8.448;2022-12-10T00:51:28;106.53;;;33.37;;
8474;SDS011;4274;52.012;8.448;2022-12-10T00:53:55;100.50;;;30.50;;
8474;SDS011;4274;52.012;8.448;2022-12-10T00:56:23;109.30;;;33.33;;
8474;SDS011;4274;52.012;8.448;2022-12-10T00:58:50;102.20;;;31.77;;
8474;SDS011;4274;52.012;8.448;2022-12-10T01:01:18;108.90;;;32.80;;
8474;SDS011;4274;52.012;8.448;2022-12-10T01:03:52;105.23;;;34.17;;
8474;SDS011;4274;52.012;8.448;2022-12-10T01:06:22;109.60;;;33.70;;
8474;SDS011;4274;52.012;8.448;2022-12-10T01:08:50;104.47;;;32.90;;
8474;SDS011;4274;52.012;8.448;2022-12-10T01:11:18;98.70;;;32.67;;
8474;SDS011;4274;52.012;8.448;2022-12-10T01:13:46;108.13;;;32.50;;
8474;SDS011;4274;52.012;8.448;2022-12-10T01:16:13;96.70;;;31.70;;
8474;SDS011;4274;52.012;8.448;2022-12-10T01:18:41;99.37;;;31.13;;
8474;SDS011;4274;52.012;8.448;2022-12-10T01:21:08;99.00;;;32.50;;
8474;SDS011;4274;52.012;8.448;2022-12-10T01:23:36;105.37;;;32.00;;
8474;SDS011;4274;52.012;8.448;2022-12-10T01:26:04;95.57;;;29.33;;
8474;SDS011;4274;52.012;8.448;2022-12-10T01:28:33;99.47;;;30.37;;
8474;SDS011;4274;52.012;8.448;2022-12-10T01:31:03;106.80;;;34.20;;
8474;SDS011;4274;52.012;8.448;2022-12-10T01:33:31;102.53;;;31.93;;
8474;SDS011;4274;52.012;8.448;2022-12-10T01:36:01;104.13;;;33.23;;
8474;SDS011;4274;52.012;8.448;2022-12-10T01:38:46;104.47;;;31.93;;
8474;SDS011;4274;52.012;8.448;2022-12-10T01:41:14;97.53;;;31.30;;
8474;SDS011;4274;52.012;8.448;2022-12-10T01:43:52;114.07;;;34.50;;
8474;SDS011;4274;52.012;8.448;2022-12-10T01:46:28;97.20;;;32.87;;
8474;SDS011;4274;52.012;8.448;2022-12-10T01:48:59;101.60;;;32.13;;
8474;SDS011;4274;52.012;8.448;2022-12-10T01:51:28;92.93;;;32.07;;
8474;SDS011;4274;52.012;8.448;2022-12-10T01:53:56;100.53;;;32.60;;
8474;SDS011;4274;52.012;8.448;2022-12-10T01:56:22;91.57;;;30.30;;
8474;SDS011;4274;52.012;8.448;2022-12-10T01:58:49;94.80;;;31.20;;
8474;SDS011;4274;52.012;8.448;2022-12-10T02:12:57;104.27;;;34.10;;
8474;SDS011;4274;52.012;8.448;2022-12-10T02:15:34;99.10;;;31.10;;
8474;SDS011;4274;52.012;8.448;2022-12-10T02:18:09;102.57;;;31.27;;
8474;SDS011;4274;52.012;8.448;2022-12-10T02:20:56;97.10;;;32.10;;
8474;SDS011;4274;52.012;8.448;2022-12-10T02:23:28;96.80;;;32.20;;
8474;SDS011;4274;52.012;8.448;2022-12-10T02:28:37;98.70;;;33.30;;
8474;SDS011;4274;52.012;8.448;2022-12-10T02:31:13;102.20;;;32.53;;
8474;SDS011;4274;52.012;8.448;2022-12-10T02:33:43;99.23;;;30.90;;
8474;SDS011;4274;52.012;8.448;2022-12-10T02:36:11;95.27;;;31.13;;
8474;SDS011;4274;52.012;8.448;2022-12-10T02:38:39;95.30;;;31.20;;
8474;SDS011;4274;52.012;8.448;2022-12-10T02:41:14;96.07;;;31.40;;
8474;SDS011;4274;52.012;8.448;2022-12-10T02:43:47;97.87;;;31.83;;
8474;SDS011;4274;52.012;8.448;2022-12-10T02:46:16;107.00;;;33.00;;
8474;SDS011;4274;52.012;8.448;2022-12-10T02:48:42;96.07;;;31.73;;
8474;SDS011;4274;52.012;8.448;2022-12-10T02:51:08;94.83;;;31.63;;
8474;SDS011;4274;52.012;8.448;2022-12-10T02:53:40;102.83;;;31.10;;
8474;SDS011;4274;52.012;8.448;2022-12-10T02:56:20;98.03;;;30.87;;
8474;SDS011;4274;52.012;8.448;2022-12-10T02:59:03;107.40;;;30.70;;
8474;SDS011;4274;52.012;8.448;2022-12-10T03:01:54;95.30;;;29.90;;
8474;SDS011;4274;52.012;8.448;2022-12-10T03:04:46;95.57;;;29.97;;
8474;SDS011;4274;52.012;8.448;2022-12-10T03:07:16;94.73;;;30.70;;
8474;SDS011;4274;52.012;8.448;2022-12-10T03:09:54;99.50;;;33.17;;
8474;SDS011;4274;52.012;8.448;2022-12-10T03:12:27;100.07;;;29.37;;
8474;SDS011;4274;52.012;8.448;2022-12-10T03:14:58;92.87;;;29.17;;
8474;SDS011;4274;52.012;8.448;2022-12-10T03:17:26;96.30;;;30.37;;
8474;SDS011;4274;52.012;8.448;2022-12-10T03:19:53;91.77;;;31.30;;
8474;SDS011;4274;52.012;8.448;2022-12-10T03:22:20;101.00;;;28.93;;
8474;SDS011;4274;52.012;8.448;2022-12-10T03:24:46;94.80;;;28.93;;
8474;SDS011;4274;52.012;8.448;2022-12-10T03:27:12;96.07;;;28.73;;
8474;SDS011;4274;52.012;8.448;2022-12-10T03:29:47;95.13;;;30.93;;
8474;SDS011;4274;52.012;8.448;2022-12-10T03:32:15;91.07;;;27.93;;
8474;SDS011;4274;52.012;8.448;2022-12-10T03:34:43;86.47;;;27.70;;
8474;SDS011;4274;52.012;8.448;2022-12-10T03:37:09;85.67;;;26.23;;
8474;SDS011;4274;52.012;8.448;2022-12-10T03:39:36;94.27;;;29.80;;
8474;SDS011;4274;52.012;8.448;2022-12-10T03:42:03;92.30;;;29.20;;
8474;SDS011;4274;52.012;8.448;2022-12-10T03:44:31;84.73;;;27.50;;
8474;SDS011;4274;52.012;8.448;2022-12-10T03:47:01;82.77;;;23.20;;
8474;SDS011;4274;52.012;8.448;2022-12-10T03:49:28;74.03;;;22.93;;
8474;SDS011;4274;52.012;8.448;2022-12-10T03:51:54;73.00;;;20.73;;
8474;SDS011;4274;52.012;8.448;2022-12-10T03:54:19;71.40;;;20.73;;
8474;SDS011;4274;52.012;8.448;2022-12-10T03:56:45;72.33;;;20.57;;
8474;SDS011;4274;52.012;8.448;2022-12-10T03:59:11;71.77;;;20.63;;
8474;SDS011;4274;52.012;8.448;2022-12-10T04:01:37;63.73;;;17.30;;
8474;SDS011;4274;52.012;8.448;2022-12-10T04:04:03;64.97;;;17.03;;
8474;SDS011;4274;52.012;8.448;2022-12-10T04:06:29;64.93;;;16.60;;
8474;SDS011;4274;52.012;8.448;2022-12-10T04:08:54;67.00;;;17.67;;
8474;SDS011;4274;52.012;8.448;2022-12-10T04:11:20;71.33;;;20.33;;
8474;SDS011;4274;52.012;8.448;2022-12-10T04:13:46;66.67;;;18.87;;
8474;SDS011;4274;52.012;8.448;2022-12-10T04:16:30;64.40;;;18.70;;
8474;SDS011;4274;52.012;8.448;2022-12-10T04:19:01;69.17;;;19.10;;
8474;SDS011;4274;52.012;8.448;2022-12-10T04:21:39;62.50;;;17.43;;
8474;SDS011;4274;52.012;8.448;2022-12-10T04:24:25;66.40;;;17.17;;
8474;SDS011;4274;52.012;8.448;2022-12-10T04:27:21;66.90;;;18.90;;
8474;SDS011;4274;52.012;8.448;2022-12-10T04:29:52;67.50;;;18.30;;
8474;SDS011;4274;52.012;8.448;2022-12-10T04:32:19;69.13;;;19.73;;
8474;SDS011;4274;52.012;8.448;2022-12-10T04:34:45;74.00;;;22.17;;
8474;SDS011;4274;52.012;8.448;2022-12-10T04:37:11;73.27;;;23.40;;
8474;SDS011;4274;52.012;8.448;2022-12-10T04:39:38;80.77;;;24.67;;
8474;SDS011;4274;52.012;8.448;2022-12-10T04:42:04;76.57;;;22.47;;
8474;SDS011;4274;52.012;8.448;2022-12-10T04:44:30;70.83;;;20.40;;
8474;SDS011;4274;52.012;8.448;2022-12-10T04:46:55;70.27;;;21.13;;
8474;SDS011;4274;52.012;8.448;2022-12-10T04:49:22;73.97;;;21.30;;
8474;SDS011;4274;52.012;8.448;2022-12-10T04:51:47;68.87;;;20.20;;
8474;SDS011;4274;52.012;8.448;2022-12-10T04:54:14;68.70;;;18.50;;
8474;SDS011;4274;52.012;8.448;2022-12-10T04:56:40;69.23;;;19.40;;
8474;SDS011;4274;52.012;8.448;2022-12-10T04:59:06;67.10;;;20.97;;
8474;SDS011;4274;52.012;8.448;2022-12-10T05:01:33;73.07;;;21.17;;
8474;SDS011;4274;52.012;8.448;2022-12-10T05:04:03;67.73;;;20.07;;
8474;SDS011;4274;52.012;8.448;2022-12-10T05:06:31;76.23;;;22.07;;
8474;SDS011;4274;52.012;8.448;2022-12-10T05:08:57;76.50;;;21.47;;
8474;SDS011;4274;52.012;8.448;2022-12-10T05:11:23;72.07;;;22.10;;
8474;SDS011;4274;52.012;8.448;2022-12-10T05:13:51;69.77;;;20.53;;
8474;SDS011;4274;52.012;8.448;2022-12-10T05:16:18;75.87;;;22.93;;
8474;SDS011;4274;52.012;8.448;2022-12-10T05:18:46;74.30;;;21.33;;
8474;SDS011;4274;52.012;8.448;2022-12-10T05:21:15;79.40;;;22.03;;
8474;SDS011;4274;52.012;8.448;2022-12-10T05:23:44;71.57;;;19.67;;
8474;SDS011;4274;52.012;8.448;2022-12-10T05:26:13;73.93;;;23.20;;
8474;SDS011;4274;52.012;8.448;2022-12-10T05:28:44;77.73;;;21.30;;
8474;SDS011;4274;52.012;8.448;2022-12-10T05:31:12;73.97;;;22.80;;
8474;SDS011;4274;52.012;8.448;2022-12-10T05:33:51;71.63;;;20.43;;
8474;SDS011;4274;52.012;8.448;2022-12-10T05:36:19;68.20;;;20.60;;
8474;SDS011;4274;52.012;8.448;2022-12-10T05:38:47;71.90;;;22.20;;
8474;SDS011;4274;52.012;8.448;2022-12-10T05:41:14;68.23;;;20.17;;
8474;SDS011;4274;52.012;8.448;2022-12-10T05:43:41;74.40;;;21.50;;
8474;SDS011;4274;52.012;8.448;2022-12-10T05:46:12;67.47;;;20.70;;
8474;SDS011;4274;52.012;8.448;2022-12-10T05:48:41;68.17;;;19.80;;
8474;SDS011;4274;52.012;8.448;2022-12-10T05:51:07;72.73;;;19.87;;
8474;SDS011;4274;52.012;8.448;2022-12-10T05:53:34;76.77;;;21.90;;
8474;SDS011;4274;52.012;8.448;2022-12-10T05:56:01;71.50;;;20.97;;
8474;SDS011;4274;52.012;8.448;2022-12-10T05:58:28;79.87;;;25.77;;
8474;SDS011;4274;52.012;8.448;2022-12-10T06:00:54;87.90;;;26.90;;
8474;SDS011;4274;52.012;8.448;2022-12-10T06:03:23;78.67;;;24.60;;
8474;SDS011;4274;52.012;8.448;2022-12-10T06:05:51;86.60;;;26.30;;
8474;SDS011;4274;52.012;8.448;2022-12-10T06:08:17;89.70;;;29.47;;
8474;SDS011;4274;52.012;8.448;2022-12-10T06:10:42;93.20;;;29.60;;
8474;SDS011;4274;52.012;8.448;2022-12-10T06:13:08;93.80;;;27.10;;
8474;SDS011;4274;52.012;8.448;2022-12-10T06:15:33;82.47;;;27.30;;
8474;SDS011;4274;52.012;8.448;2022-12-10T06:17:59;91.37;;;30.07;;
8474;SDS011;4274;52.012;8.448;2022-12-10T06:20:25;91.97;;;29.97;;
8474;SDS011;4274;52.012;8.448;2022-12-10T06:22:51;90.10;;;30.30;;
8474;SDS011;4274;52.012;8.448;2022-12-10T06:25:17;93.90;;;28.33;;
8474;SDS011;4274;52.012;8.448;2022-12-10T06:27:43;87.60;;;28.63;;
8474;SDS011;4274;52.012;8.448;2022-12-10T06:30:09;86.57;;;29.90;;
8474;SDS011;4274;52.012;8.448;2022-12-10T06:32:35;91.53;;;30.23;;
8474;SDS011;4274;52.012;8.448;2022-12-10T06:35:01;96.77;;;32.80;;
8474;SDS011;4274;52.012;8.448;2022-12-10T06:37:27;97.00;;;31.10;;
8474;SDS011;4274;52.012;8.448;2022-12-10T06:39:52;97.30;;;31.00;;
8474;SDS011;4274;52.012;8.448;2022-12-10T06:42:19;99.70;;;33.53;;
8474;SDS011;4274;52.012;8.448;2022-12-10T06:44:45;91.10;;;31.53;;
8474;SDS011;4274;52.012;8.448;2022-12-10T06:47:11;93.17;;;32.00;;
8474;SDS011;4274;52.012;8.448;2022-12-10T06:49:37;95.13;;;31.90;;
8474;SDS011;4274;52.012;8.448;2022-12-10T06:52:02;88.57;;;28.87;;
8474;SDS011;4274;52.012;8.448;2022-12-10T06:54:28;89.17;;;29.70;;
8474;SDS011;4274;52.012;8.448;2022-12-10T06:56:54;94.60;;;31.77;;
8474;SDS011;4274;52.012;8.448;2022-12-10T06:59:20;95.00;;;29.67;;
8474;SDS011;4274;52.012;8.448;2022-12-10T07:01:46;96.00;;;30.40;;
8474;SDS011;4274;52.012;8.448;2022-12-10T07:04:11;92.50;;;30.27;;
8474;SDS011;4274;52.012;8.448;2022-12-10T07:06:37;95.47;;;30.60;;
8474;SDS011;4274;52.012;8.448;2022-12-10T07:09:03;94.27;;;31.83;;
8474;SDS011;4274;52.012;8.448;2022-12-10T07:11:29;94.90;;;30.43;;
8474;SDS011;4274;52.012;8.448;2022-12-10T07:13:56;98.17;;;31.33;;
8474;SDS011;4274;52.012;8.448;2022-12-10T07:16:26;89.07;;;31.73;;
8474;SDS011;4274;52.012;8.448;2022-12-10T07:18:54;93.73;;;31.60;;
8474;SDS011;4274;52.012;8.448;2022-12-10T07:21:26;93.40;;;30.07;;
8474;SDS011;4274;52.012;8.448;2022-12-10T07:23:53;89.57;;;29.37;;
8474;SDS011;4274;52.012;8.448;2022-12-10T07:26:23;89.10;;;30.57;;
8474;SDS011;4274;52.012;8.448;2022-12-10T07:28:49;95.60;;;31.83;;
8474;SDS011;4274;52.012;8.448;2022-12-10T07:31:14;93.20;;;31.57;;
8474;SDS011;4274;52.012;8.448;2022-12-10T07:33:40;90.57;;;29.50;;
8474;SDS011;4274;52.012;8.448;2022-12-10T07:36:08;93.90;;;32.10;;
8474;SDS011;4274;52.012;8.448;2022-12-10T07:38:35;89.83;;;30.50;;
8474;SDS011;4274;52.012;8.448;2022-12-10T07:41:06;95.47;;;31.10;;
8474;SDS011;4274;52.012;8.448;2022-12-10T07:43:36;94.07;;;29.27;;
8474;SDS011;4274;52.012;8.448;2022-12-10T07:46:07;92.83;;;30.13;;
8474;SDS011;4274;52.012;8.448;2022-12-10T07:48:41;96.20;;;32.43;;
8474;SDS011;4274;52.012;8.448;2022-12-10T07:51:08;91.90;;;31.93;;
8474;SDS011;4274;52.012;8.448;2022-12-10T07:53:34;98.30;;;32.13;;
8474;SDS011;4274;52.012;8.448;2022-12-10T07:56:00;93.53;;;31.10;;
8474;SDS011;4274;52.012;8.448;2022-12-10T07:58:26;94.10;;;30.40;;
8474;SDS011;4274;52.012;8.448;2022-12-10T08:00:52;91.50;;;29.27;;
8474;SDS011;4274;52.012;8.448;2022-12-10T08:03:17;94.67;;;31.23;;
8474;SDS011;4274;52.012;8.448;2022-12-10T08:05:43;89.50;;;29.53;;
8474;SDS011;4274;52.012;8.448;2022-12-10T08:08:09;89.80;;;29.53;;
8474;SDS011;4274;52.012;8.448;2022-12-10T08:10:35;91.70;;;29.70;;
8474;SDS011;4274;52.012;8.448;2022-12-10T08:13:01;92.40;;;31.63;;
8474;SDS011;4274;52.012;8.448;2022-12-10T08:15:27;96.83;;;32.33;;
8474;SDS011;4274;52.012;8.448;2022-12-10T08:17:53;97.53;;;30.83;;
8474;SDS011;4274;52.012;8.448;2022-12-10T08:20:19;96.17;;;33.90;;
8474;SDS011;4274;52.012;8.448;2022-12-10T08:22:45;91.13;;;30.70;;
8474;SDS011;4274;52.012;8.448;2022-12-10T08:25:10;94.03;;;31.07;;
8474;SDS011;4274;52.012;8.448;2022-12-10T08:27:36;88.30;;;31.97;;
8474;SDS011;4274;52.012;8.448;2022-12-10T08:30:02;95.67;;;33.10;;
8474;SDS011;4274;52.012;8.448;2022-12-10T08:32:28;89.07;;;31.23;;
8474;SDS011;4274;52.012;8.448;2022-12-10T08:34:54;92.37;;;33.47;;
8474;SDS011;4274;52.012;8.448;2022-12-10T08:37:20;90.80;;;31.13;;
8474;SDS011;4274;52.012;8.448;2022-12-10T08:39:45;89.17;;;31.23;;
8474;SDS011;4274;52.012;8.448;2022-12-10T08:42:11;91.47;;;31.60;;
8474;SDS011;4274;52.012;8.448;2022-12-10T08:44:36;94.70;;;32.37;;
8474;SDS011;4274;52.012;8.448;2022-12-10T08:47:02;89.30;;;29.60;;
8474;SDS011;4274;52.012;8.448;2022-12-10T08:49:28;85.57;;;29.27;;
8474;SDS011;4274;52.012;8.448;2022-12-10T08:51:53;95.43;;;33.00;;
8474;SDS011;4274;52.012;8.448;2022-12-10T08:54:19;102.43;;;32.40;;
8474;SDS011;4274;52.012;8.448;2022-12-10T08:56:44;95.20;;;33.77;;
8474;SDS011;4274;52.012;8.448;2022-12-10T08:59:10;85.47;;;30.33;;
8474;SDS011;4274;52.012;8.448;2022-12-10T09:01:36;96.60;;;31.40;;
8474;SDS011;4274;52.012;8.448;2022-12-10T09:04:01;81.60;;;27.50;;
8474;SDS011;4274;52.012;8.448;2022-12-10T09:06:27;68.30;;;22.10;;
8474;SDS011;4274;52.012;8.448;2022-12-10T09:08:53;84.83;;;24.67;;
8474;SDS011;4274;52.012;8.448;2022-12-10T09:11:20;73.87;;;23.57;;
8474;SDS011;4274;52.012;8.448;2022-12-10T09:13:57;89.80;;;31.27;;
8474;SDS011;4274;52.012;8.448;2022-12-10T09:16:30;86.60;;;28.47;;
8474;SDS011;4274;52.012;8.448;2022-12-10T09:18:58;87.63;;;29.97;;
8474;SDS011;4274;52.012;8.448;2022-12-10T09:21:25;85.90;;;29.60;;
8474;SDS011;4274;52.012;8.448;2022-12-10T09:23:51;84.40;;;27.83;;
8474;SDS011;4274;52.012;8.448;2022-12-10T09:26:17;81.30;;;28.90;;
8474;SDS011;4274;52.012;8.448;2022-12-10T09:28:44;99.77;;;29.97;;
8474;SDS011;4274;52.012;8.448;2022-12-10T09:31:10;87.80;;;29.57;;
8474;SDS011;4274;52.012;8.448;2022-12-10T09:33:37;83.13;;;28.77;;
8474;SDS011;4274;52.012;8.448;2022-12-10T09:36:03;86.57;;;30.17;;
8474;SDS011;4274;52.012;8.448;2022-12-10T09:38:32;89.00;;;29.80;;
8474;SDS011;4274;52.012;8.448;2022-12-10T09:41:03;86.83;;;30.80;;
8474;SDS011;4274;52.012;8.448;2022-12-10T09:43:48;99.13;;;31.30;;
8474;SDS011;4274;52.012;8.448;2022-12-10T09:49:30;87.03;;;29.60;;
8474;SDS011;4274;52.012;8.448;2022-12-10T09:52:14;82.57;;;28.10;;
8474;SDS011;4274;52.012;8.448;2022-12-10T09:54:44;82.40;;;27.50;;
8474;SDS011;4274;52.012;8.448;2022-12-10T09:57:23;80.37;;;28.00;;
8474;SDS011;4274;52.012;8.448;2022-12-10T09:59:50;82.80;;;28.70;;
8474;SDS011;4274;52.012;8.448;2022-12-10T10:04:46;83.87;;;28.07;;
8474;SDS011;4274;52.012;8.448;2022-12-10T10:07:17;80.10;;;27.40;;
8474;SDS011;4274;52.012;8.448;2022-12-10T10:09:46;82.20;;;29.80;;
8474;SDS011;4274;52.012;8.448;2022-12-10T10:12:13;78.00;;;25.20;;
8474;SDS011;4274;52.012;8.448;2022-12-10T10:14:39;78.83;;;26.90;;
8474;SDS011;4274;52.012;8.448;2022-12-10T10:17:12;84.50;;;28.73;;
8474;SDS011;4274;52.012;8.448;2022-12-10T10:19:45;78.23;;;26.50;;
8474;SDS011;4274;52.012;8.448;2022-12-10T10:22:11;84.90;;;28.13;;
8474;SDS011;4274;52.012;8.448;2022-12-10T10:24:38;83.60;;;26.00;;
8474;SDS011;4274;52.012;8.448;2022-12-10T10:27:14;77.40;;;25.13;;
8474;SDS011;4274;52.012;8.448;2022-12-10T10:29:42;73.50;;;25.60;;
8474;SDS011;4274;52.012;8.448;2022-12-10T10:32:13;79.17;;;26.33;;
8474;SDS011;4274;52.012;8.448;2022-12-10T10:34:52;75.60;;;26.17;;
8474;SDS011;4274;52.012;8.448;2022-12-10T10:37:41;73.27;;;25.33;;
8474;SDS011;4274;52.012;8.448;2022-12-10T10:40:09;74.70;;;24.57;;
8474;SDS011;4274;52.012;8.448;2022-12-10T10:42:47;78.83;;;25.43;;
8474;SDS011;4274;52.012;8.448;2022-12-10T10:50:43;87.27;;;28.17;;
8474;SDS011;4274;52.012;8.448;2022-12-10T10:55:48;77.70;;;25.83;;
8474;SDS011;4274;52.012;8.448;2022-12-10T10:58:18;79.53;;;26.30;;
8474;SDS011;4274;52.012;8.448;2022-12-10T11:00:55;74.70;;;26.87;;
8474;SDS011;4274;52.012;8.448;2022-12-10T11:03:26;78.50;;;26.47;;
8474;SDS011;4274;52.012;8.448;2022-12-10T11:05:54;75.40;;;24.83;;
8474;SDS011;4274;52.012;8.448;2022-12-10T11:08:23;79.77;;;25.87;;
8474;SDS011;4274;52.012;8.448;2022-12-10T11:10:51;78.23;;;25.50;;
8474;SDS011;4274;52.012;8.448;2022-12-10T11:13:26;78.27;;;26.10;;
8474;SDS011;4274;52.012;8.448;2022-12-10T11:15:58;73.37;;;23.20;;
8474;SDS011;4274;52.012;8.448;2022-12-10T11:18:30;76.67;;;23.17;;
8474;SDS011;4274;52.012;8.448;2022-12-10T11:21:06;74.77;;;24.53;;
8474;SDS011;4274;52.012;8.448;2022-12-10T11:23:42;85.40;;;28.73;;
8474;SDS011;4274;52.012;8.448;2022-12-10T11:45:26;63.77;;;17.00;;
8474;SDS011;4274;52.012;8.448;2022-12-10T11:51:06;72.80;;;23.60;;
8474;SDS011;4274;52.012;8.448;2022-12-10T11:54:03;77.53;;;25.13;;
8474;SDS011;4274;52.012;8.448;2022-12-10T11:56:59;75.10;;;24.60;;
8474;SDS011;4274;52.012;8.448;2022-12-10T12:16:20;73.60;;;23.50;;
8474;SDS011;4274;52.012;8.448;2022-12-10T12:18:59;70.40;;;21.73;;
8474;SDS011;4274;52.012;8.448;2022-12-10T12:21:28;65.87;;;20.13;;
8474;SDS011;4274;52.012;8.448;2022-12-10T12:23:55;63.40;;;17.13;;
8474;SDS011;4274;52.012;8.448;2022-12-10T12:26:29;61.37;;;17.20;;
8474;SDS011;4274;52.012;8.448;2022-12-10T12:31:54;66.83;;;19.67;;
8474;SDS011;4274;52.012;8.448;2022-12-10T12:34:23;70.03;;;20.17;;
8474;SDS011;4274;52.012;8.448;2022-12-10T12:36:56;69.63;;;19.53;;
8474;SDS011;4274;52.012;8.448;2022-12-10T12:39:32;65.63;;;18.90;;
8474;SDS011;4274;52.012;8.448;2022-12-10T12:44:59;68.70;;;21.47;;
8474;SDS011;4274;52.012;8.448;2022-12-10T12:52:53;65.77;;;19.93;;
8474;SDS011;4274;52.012;8.448;2022-12-10T12:55:27;61.87;;;17.90;;
8474;SDS011;4274;52.012;8.448;2022-12-10T12:58:10;64.10;;;18.57;;
8474;SDS011;4274;52.012;8.448;2022-12-10T13:00:45;68.03;;;19.40;;
8474;SDS011;4274;52.012;8.448;2022-12-10T13:05:43;64.90;;;18.80;;
8474;SDS011;4274;52.012;8.448;2022-12-10T13:10:54;61.20;;;17.60;;
8474;SDS011;4274;52.012;8.448;2022-12-10T13:32:18;62.97;;;17.13;;
8474;SDS011;4274;52.012;8.448;2022-12-10T13:34:45;62.07;;;18.80;;
8474;SDS011;4274;52.012;8.448;2022-12-10T13:37:16;63.10;;;17.37;;
8474;SDS011;4274;52.012;8.448;2022-12-10T13:39:53;64.57;;;18.53;;
8474;SDS011;4274;52.012;8.448;2022-12-10T13:42:26;68.50;;;18.50;;
8474;SDS011;4274;52.012;8.448;2022-12-10T13:48:32;65.30;;;17.80;;
8474;SDS011;4274;52.012;8.448;2022-12-10T13:50:48;63.63;;;18.73;;
8474;SDS011;4274;52.012;8.448;2022-12-10T13:53:29;61.07;;;17.87;;
8474;SDS011;4274;52.012;8.448;2022-12-10T13:56:59;58.50;;;16.40;;
8474;SDS011;4274;52.012;8.448;2022-12-10T14:07:33;63.63;;;17.90;;
8474;SDS011;4274;52.012;8.448;2022-12-10T14:09:59;62.30;;;17.00;;
8474;SDS011;4274;52.012;8.448;2022-12-10T14:12:36;62.03;;;17.43;;
8474;SDS011;4274;52.012;8.448;2022-12-10T14:15:05;61.80;;;17.53;;
8474;SDS011;4274;52.012;8.448;2022-12-10T14:17:34;62.27;;;18.13;;
8474;SDS011;4274;52.012;8.448;2022-12-10T14:20:06;63.27;;;18.00;;
8474;SDS011;4274;52.012;8.448;2022-12-10T14:22:34;63.45;;;17.85;;
8474;SDS011;4274;52.012;8.448;2022-12-10T14:25:04;68.47;;;20.00;;
8474;SDS011;4274;52.012;8.448;2022-12-10T14:27:32;62.50;;;17.77;;
8474;SDS011;4274;52.012;8.448;2022-12-10T14:30:02;61.73;;;16.83;;
8474;SDS011;4274;52.012;8.448;2022-12-10T14:32:49;61.23;;;17.33;;
8474;SDS011;4274;52.012;8.448;2022-12-10T14:35:25;62.10;;;17.30;;
8474;SDS011;4274;52.012;8.448;2022-12-10T14:37:53;60.87;;;15.80;;
8474;SDS011;4274;52.012;8.448;2022-12-10T14:40:23;61.90;;;16.23;;
8474;SDS011;4274;52.012;8.448;2022-12-10T14:42:50;59.83;;;16.00;;
8474;SDS011;4274;52.012;8.448;2022-12-10T14:45:21;58.33;;;15.40;;
8474;SDS011;4274;52.012;8.448;2022-12-10T14:47:47;62.08;;;16.65;;
8474;SDS011;4274;52.012;8.448;2022-12-10T14:50:14;60.40;;;16.40;;
8474;SDS011;4274;52.012;8.448;2022-12-10T14:52:42;58.73;;;15.07;;
8474;SDS011;4274;52.012;8.448;2022-12-10T14:55:14;61.33;;;17.60;;
8474;SDS011;4274;52.012;8.448;2022-12-10T14:57:44;59.17;;;16.73;;
8474;SDS011;4274;52.012;8.448;2022-12-10T15:00:16;58.50;;;16.07;;
8474;SDS011;4274;52.012;8.448;2022-12-10T15:02:45;65.90;;;18.27;;
8474;SDS011;4274;52.012;8.448;2022-12-10T15:05:38;62.40;;;19.10;;
8474;SDS011;4274;52.012;8.448;2022-12-10T15:08:07;64.80;;;17.70;;
8474;SDS011;4274;52.012;8.448;2022-12-10T15:10:41;61.50;;;17.67;;
8474;SDS011;4274;52.012;8.448;2022-12-10T15:13:20;69.27;;;20.20;;
8474;SDS011;4274;52.012;8.448;2022-12-10T15:15:48;71.27;;;21.73;;
8474;SDS011;4274;52.012;8.448;2022-12-10T15:18:16;64.70;;;18.97;;
8474;SDS011;4274;52.012;8.448;2022-12-10T15:20:54;67.90;;;19.30;;
8474;SDS011;4274;52.012;8.448;2022-12-10T15:28:25;65.50;;;19.43;;
8474;SDS011;4274;52.012;8.448;2022-12-10T15:30:57;60.23;;;16.03;;
8474;SDS011;4274;52.012;8.448;2022-12-10T15:34:17;65.60;;;17.10;;
8474;SDS011;4274;52.012;8.448;2022-12-10T15:44:04;63.00;;;18.60;;
8474;SDS011;4274;52.012;8.448;2022-12-10T15:46:50;62.43;;;17.53;;
8474;SDS011;4274;52.012;8.448;2022-12-10T15:49:22;73.00;;;18.63;;
8474;SDS011;4274;52.012;8.448;2022-12-10T15:51:47;62.20;;;17.77;;
8474;SDS011;4274;52.012;8.448;2022-12-10T15:54:26;66.47;;;18.27;;
8474;SDS011;4274;52.012;8.448;2022-12-10T15:56:55;63.00;;;17.47;;
8474;SDS011;4274;52.012;8.448;2022-12-10T15:59:20;64.40;;;17.43;;
8474;SDS011;4274;52.012;8.448;2022-12-10T16:01:46;62.50;;;17.90;;
8474;SDS011;4274;52.012;8.448;2022-12-10T16:04:12;66.53;;;19.37;;
8474;SDS011;4274;52.012;8.448;2022-12-10T16:06:38;62.57;;;17.87;;
8474;SDS011;4274;52.012;8.448;2022-12-10T16:09:04;67.03;;;19.87;;
8474;SDS011;4274;52.012;8.448;2022-12-10T16:11:30;67.73;;;21.50;;
8474;SDS011;4274;52.012;8.448;2022-12-10T16:13:57;65.93;;;20.00;;
8474;SDS011;4274;52.012;8.448;2022-12-10T16:16:23;65.50;;;18.90;;
8474;SDS011;4274;52.012;8.448;2022-12-10T16:18:50;67.00;;;18.43;;
8474;SDS011;4274;52.012;8.448;2022-12-10T16:21:16;68.50;;;20.43;;
8474;SDS011;4274;52.012;8.448;2022-12-10T16:23:41;69.43;;;20.87;;
8474;SDS011;4274;52.012;8.448;2022-12-10T16:26:17;69.00;;;20.20;;
8474;SDS011;4274;52.012;8.448;2022-12-10T16:28:44;62.40;;;18.57;;
8474;SDS011;4274;52.012;8.448;2022-12-10T16:31:11;69.37;;;20.70;;
8474;SDS011;4274;52.012;8.448;2022-12-10T16:33:39;73.77;;;22.27;;
8474;SDS011;4274;52.012;8.448;2022-12-10T16:36:05;65.40;;;19.20;;
8474;SDS011;4274;52.012;8.448;2022-12-10T16:38:31;69.10;;;20.37;;
8474;SDS011;4274;52.012;8.448;2022-12-10T16:40:57;67.97;;;19.97;;
8474;SDS011;4274;52.012;8.448;2022-12-10T16:43:24;69.47;;;20.40;;
8474;SDS011;4274;52.012;8.448;2022-12-10T16:45:52;71.57;;;22.60;;
8474;SDS011;4274;52.012;8.448;2022-12-10T16:48:19;70.80;;;21.93;;
8474;SDS011;4274;52.012;8.448;2022-12-10T16:50:45;65.13;;;18.80;;
8474;SDS011;4274;52.012;8.448;2022-12-10T16:53:14;67.00;;;20.00;;
8474;SDS011;4274;52.012;8.448;2022-12-10T16:55:42;61.83;;;19.30;;
8474;SDS011;4274;52.012;8.448;2022-12-10T16:58:09;67.90;;;19.03;;
8474;SDS011;4274;52.012;8.448;2022-12-10T17:00:36;67.43;;;19.87;;
8474;SDS011;4274;52.012;8.448;2022-12-10T17:03:02;69.03;;;19.43;;
8474;SDS011;4274;52.012;8.448;2022-12-10T17:05:33;66.50;;;19.90;;